createdAt,value
2018-12-15T00:06:31.771Z,0.92
2018-12-15T00:16:30.960Z,1.65
2018-12-15T00:26:30.908Z,1.55
2018-12-15T00:36:30.888Z,2.51
2018-12-15T00:46:30.840Z,1.09
2018-12-15T00:56:30.891Z,1.42
2018-12-15T01:06:30.876Z,1.24
2018-12-15T01:16:30.866Z,1.84
2018-12-15T01:26:31.114Z,1.55
2018-12-15T01:36:30.851Z,2.04
2018-12-15T01:46:30.832Z,1.30
2018-12-15T01:56:30.900Z,1.17
2018-12-15T02:06:30.936Z,1.78
2018-12-15T02:16:30.849Z,0.71
2018-12-15T02:26:30.874Z,0.42
2018-12-15T02:36:30.881Z,0.83
2018-12-15T02:46:30.895Z,0.92
2018-12-15T02:56:30.935Z,1.12
2018-12-15T03:06:30.860Z,1.08
2018-12-15T03:16:30.908Z,1.27
2018-12-15T03:26:30.880Z,1.37
2018-12-15T03:36:30.897Z,0.85
2018-12-15T03:46:30.940Z,1.02
2018-12-15T03:56:30.810Z,1.15
2018-12-15T04:06:30.836Z,1.32
2018-12-15T04:16:30.806Z,0.74
2018-12-15T04:26:30.847Z,0.93
2018-12-15T04:36:31.581Z,1.18
2018-12-15T04:46:30.851Z,1.24
2018-12-15T04:56:31.010Z,1.18
2018-12-15T05:06:30.855Z,1.28
2018-12-15T05:16:30.923Z,1.51
2018-12-15T05:26:30.899Z,2.04
2018-12-15T05:36:30.879Z,1.41
2018-12-15T05:46:30.880Z,1.58
2018-12-15T05:56:30.869Z,2.18
2018-12-15T06:06:30.857Z,1.95
2018-12-15T06:16:30.795Z,1.64
2018-12-15T06:26:30.821Z,2.36
2018-12-15T06:36:30.880Z,1.95
2018-12-15T06:46:30.811Z,2.35
2018-12-15T06:56:30.848Z,2.06
2018-12-15T07:06:30.813Z,2.60
2018-12-15T07:16:30.817Z,2.73
2018-12-15T07:26:30.784Z,1.87
2018-12-15T07:36:30.756Z,1.44
2018-12-15T07:46:30.770Z,2.10
2018-12-15T07:56:30.797Z,2.58
2018-12-15T08:06:30.763Z,1.94
2018-12-15T08:16:30.731Z,1.46
2018-12-15T08:26:30.771Z,2.72
2018-12-15T08:36:30.835Z,2.91
2018-12-15T08:46:31.183Z,3.12
2018-12-15T08:56:30.755Z,3.25
2018-12-15T09:06:30.883Z,2.91
2018-12-15T09:16:30.648Z,2.12
2018-12-15T09:26:30.711Z,1.84
2018-12-15T09:36:30.698Z,1.87
2018-12-15T09:46:30.723Z,1.23
2018-12-15T09:56:30.771Z,1.80
2018-12-15T10:06:31.560Z,2.16
2018-12-15T10:16:30.777Z,2.65
2018-12-15T10:26:30.824Z,2.36
2018-12-15T10:36:31.658Z,2.06
2018-12-15T10:46:30.703Z,2.34
2018-12-15T10:56:30.902Z,2.52
2018-12-15T11:06:30.780Z,2.35
2018-12-15T11:16:30.675Z,2.22
2018-12-15T11:26:30.768Z,2.36
2018-12-15T11:36:30.785Z,2.79
2018-12-15T11:46:30.669Z,2.32
2018-12-15T11:56:30.854Z,2.52
2018-12-15T12:06:30.790Z,2.28
2018-12-15T12:16:30.730Z,2.24
2018-12-15T12:26:30.653Z,2.78
2018-12-15T12:36:30.764Z,2.55
2018-12-15T12:46:30.725Z,2.46
2018-12-15T12:56:30.756Z,2.44
2018-12-15T13:06:30.673Z,2.86
2018-12-15T13:16:30.670Z,2.45
2018-12-15T13:26:30.695Z,3.55
2018-12-15T13:36:32.045Z,2.16
2018-12-15T13:46:30.789Z,2.59
2018-12-15T13:56:30.715Z,1.52
2018-12-15T14:06:30.700Z,2.57
2018-12-15T14:16:30.712Z,1.78
2018-12-15T14:26:30.712Z,2.05
2018-12-15T14:36:30.748Z,3.08
2018-12-15T14:46:30.671Z,2.03
2018-12-15T14:56:30.680Z,2.09
2018-12-15T15:06:30.672Z,1.36
2018-12-15T15:16:30.607Z,1.74
2018-12-15T15:26:30.721Z,2.21
2018-12-15T15:36:30.804Z,1.96
2018-12-15T15:46:30.589Z,1.70
2018-12-15T15:56:30.828Z,1.66
2018-12-15T16:06:30.665Z,1.94
2018-12-15T16:16:31.246Z,1.85
2018-12-15T16:26:30.667Z,1.62
2018-12-15T16:36:30.633Z,2.04
2018-12-15T16:46:30.609Z,1.91
2018-12-15T16:56:30.543Z,1.98
2018-12-15T17:06:30.781Z,2.04
2018-12-15T17:16:30.678Z,2.85
2018-12-15T17:26:30.588Z,2.93
2018-12-15T17:36:30.615Z,2.98
2018-12-15T17:46:31.378Z,2.84
2018-12-15T17:56:30.633Z,2.10
2018-12-15T18:06:30.674Z,1.66
2018-12-15T18:16:30.658Z,1.15
2018-12-15T18:26:30.675Z,0.87
2018-12-15T18:36:30.637Z,1.22
2018-12-15T18:46:31.605Z,2.11
2018-12-15T18:56:32.457Z,1.62
2018-12-15T19:06:30.668Z,1.69
2018-12-15T19:16:30.794Z,2.35
2018-12-15T19:26:30.648Z,2.19
2018-12-15T19:36:30.928Z,2.16
2018-12-15T19:46:30.657Z,1.92
2018-12-15T19:56:30.720Z,1.71
2018-12-15T20:06:30.572Z,1.97
2018-12-15T20:16:30.654Z,1.87
2018-12-15T20:26:30.623Z,1.76
2018-12-15T20:36:30.535Z,1.84
2018-12-15T20:46:30.558Z,2.42
2018-12-15T20:56:30.539Z,2.30
2018-12-15T21:06:31.251Z,2.77
2018-12-15T21:16:30.589Z,2.16
2018-12-15T21:26:30.405Z,2.63
2018-12-15T21:36:30.521Z,2.74
2018-12-15T21:46:30.451Z,2.65
2018-12-15T21:56:30.514Z,2.60
2018-12-15T22:06:30.613Z,2.21
2018-12-15T22:16:31.750Z,1.65
2018-12-15T22:26:30.635Z,2.74
2018-12-15T22:36:30.594Z,2.55
2018-12-15T22:46:30.623Z,1.90
2018-12-15T22:56:30.496Z,2.05
2018-12-15T23:06:30.550Z,1.44
2018-12-15T23:16:30.578Z,2.53
2018-12-15T23:26:30.532Z,2.47
2018-12-15T23:36:30.509Z,2.58
2018-12-15T23:46:30.616Z,3.00
2018-12-15T23:56:30.444Z,2.06
